createdAt,value
2023-02-13T00:01:06.698Z,102771.88
2023-02-13T00:03:34.803Z,102782.25
2023-02-13T00:06:02.786Z,102786.44
2023-02-13T00:08:30.757Z,102773.78
2023-02-13T00:10:59.107Z,102779.88
2023-02-13T00:13:27.353Z,102777.28
2023-02-13T00:16:00.143Z,102773.03
2023-02-13T00:18:30.686Z,102789.13
2023-02-13T00:21:00.116Z,102782.34
2023-02-13T00:23:28.314Z,102778.09
2023-02-13T00:25:56.280Z,102784.72
2023-02-13T00:28:24.272Z,102789.06
2023-02-13T00:30:52.521Z,102769.38
2023-02-13T00:33:20.650Z,102786.50
2023-02-13T00:35:49.953Z,102789.19
2023-02-13T00:38:17.842Z,102789.47
2023-02-13T00:40:45.740Z,102787.63
2023-02-13T00:43:13.640Z,102788.59
2023-02-13T00:45:41.519Z,102782.56
2023-02-13T00:48:09.418Z,102780.19
2023-02-13T00:50:37.301Z,102781.13
2023-02-13T00:53:06.555Z,102793.78
2023-02-13T00:55:35.762Z,102792.31
2023-02-13T00:58:03.771Z,102795.75
2023-02-13T01:00:31.715Z,102792.34
2023-02-13T01:02:59.679Z,102778.44
2023-02-13T01:05:31.032Z,102792.75
2023-02-13T01:07:58.970Z,102786.03
2023-02-13T01:10:28.299Z,102793.63
2023-02-13T01:12:56.351Z,102791.25
2023-02-13T01:15:24.804Z,102787.94
2023-02-13T01:17:54.347Z,102782.81
2023-02-13T01:20:22.337Z,102769.00
2023-02-13T01:22:50.754Z,102774.31
2023-02-13T01:25:18.760Z,102775.03
2023-02-13T01:27:48.355Z,102768.91
2023-02-13T01:30:18.273Z,102772.91
2023-02-13T01:32:47.869Z,102775.53
2023-02-13T01:35:16.964Z,102762.06
2023-02-13T01:37:45.242Z,102758.88
2023-02-13T01:40:15.164Z,102764.75
2023-02-13T01:42:43.050Z,102765.44
2023-02-13T01:45:24.832Z,102765.72
2023-02-13T01:47:56.547Z,102775.00
2023-02-13T01:50:29.974Z,102781.69
2023-02-13T01:53:03.530Z,102769.69
2023-02-13T01:55:33.837Z,102778.16
2023-02-13T01:58:06.113Z,102764.69
2023-02-13T02:00:36.803Z,102764.69
2023-02-13T02:03:11.104Z,102775.78
2023-02-13T02:05:40.337Z,102775.69
2023-02-13T02:08:11.749Z,102779.78
2023-02-13T02:10:40.557Z,102773.09
2023-02-13T02:13:12.463Z,102776.53
2023-02-13T02:15:43.646Z,102776.53
2023-02-13T02:18:15.701Z,102765.69
2023-02-13T02:21:25.028Z,102769.28
2023-02-13T02:24:19.953Z,102765.69
2023-02-13T02:27:19.179Z,102772.63
2023-02-13T02:30:27.931Z,102769.25
2023-02-13T02:33:08.536Z,102767.59
2023-02-13T02:35:45.588Z,102759.88
2023-02-13T02:38:33.432Z,102765.06
2023-02-13T02:41:11.187Z,102768.63
2023-02-13T02:43:52.763Z,102765.81
2023-02-13T02:46:30.720Z,102762.22
2023-02-13T02:49:24.516Z,102751.06
2023-02-13T02:52:03.554Z,102755.34
2023-02-13T02:54:55.991Z,102757.63
2023-02-13T02:57:48.538Z,102761.28
2023-02-13T03:00:35.698Z,102769.22
2023-02-13T03:03:22.285Z,102770.81
2023-02-13T03:06:11.785Z,102761.28
2023-02-13T03:08:59.052Z,102767.06
2023-02-13T03:11:44.896Z,102746.19
2023-02-13T03:14:16.161Z,102768.53
2023-02-13T03:17:01.754Z,102763.56
2023-02-13T03:19:58.662Z,102764.28
2023-02-13T03:22:41.945Z,102766.50
2023-02-13T03:25:19.223Z,102770.66
2023-02-13T03:28:09.453Z,102765.44
2023-02-13T03:30:54.476Z,102758.59
2023-02-13T03:33:36.686Z,102769.56
2023-02-13T03:36:33.403Z,102767.66
2023-02-13T03:39:08.802Z,102775.88
2023-02-13T03:41:41.292Z,102771.44
2023-02-13T03:44:15.203Z,102773.13
2023-02-13T03:46:46.356Z,102781.03
2023-02-13T03:49:39.973Z,102772.91
2023-02-13T03:52:14.671Z,102776.34
2023-02-13T03:55:04.496Z,102773.66
2023-02-13T03:57:52.871Z,102768.94
2023-02-13T04:00:22.489Z,102771.25
2023-02-13T04:02:58.734Z,102763.75
2023-02-13T04:05:31.024Z,102759.38
2023-02-13T04:07:59.127Z,102763.78
2023-02-13T04:10:32.995Z,102769.84
2023-02-13T04:13:10.834Z,102764.44
2023-02-13T04:15:43.656Z,102759.22
2023-02-13T04:18:15.721Z,102771.13
2023-02-13T04:20:44.177Z,102771.00
2023-02-13T04:23:13.654Z,102763.13
2023-02-13T04:25:47.424Z,102767.38
2023-02-13T04:28:15.475Z,102768.06
2023-02-13T04:30:43.606Z,102763.53
2023-02-13T04:33:11.614Z,102770.34
2023-02-13T04:35:39.534Z,102780.53
2023-02-13T04:38:07.479Z,102772.88
2023-02-13T04:40:35.568Z,102777.19
2023-02-13T04:43:04.858Z,102775.47
2023-02-13T04:45:32.781Z,102772.78
2023-02-13T04:48:01.552Z,102775.41
2023-02-13T04:50:29.454Z,102777.94
2023-02-13T04:52:59.031Z,102777.56
2023-02-13T04:55:28.655Z,102782.78
2023-02-13T04:57:57.828Z,102775.06
2023-02-13T05:00:29.161Z,102777.75
2023-02-13T05:03:02.116Z,102775.25
2023-02-13T05:05:30.041Z,102774.94
2023-02-13T05:07:57.932Z,102785.94
2023-02-13T05:10:25.910Z,102791.94
2023-02-13T05:12:53.834Z,102785.88
2023-02-13T05:15:22.721Z,102789.06
2023-02-13T05:17:52.513Z,102786.59
2023-02-13T05:20:20.884Z,102802.00
2023-02-13T05:23:10.445Z,102803.00
2023-02-13T05:25:40.450Z,102811.38
2023-02-13T05:28:29.528Z,102810.56
2023-02-13T05:30:58.273Z,102800.44
2023-02-13T05:33:28.315Z,102800.50
2023-02-13T05:35:56.206Z,102810.56
2023-02-13T05:38:24.199Z,102813.03
2023-02-13T05:40:52.103Z,102805.25
2023-02-13T05:43:21.373Z,102822.41
2023-02-13T05:45:49.415Z,102819.22
2023-02-13T05:48:17.614Z,102810.13
2023-02-13T05:50:48.974Z,102823.03
2023-02-13T05:53:16.895Z,102811.19
2023-02-13T05:55:44.780Z,102816.44
2023-02-13T05:58:12.807Z,102814.00
2023-02-13T06:00:40.763Z,102814.19
2023-02-13T06:03:08.851Z,102823.88
2023-02-13T06:05:36.834Z,102830.88
2023-02-13T06:08:06.426Z,102831.22
2023-02-13T06:10:34.357Z,102835.91
2023-02-13T06:13:02.253Z,102838.69
2023-02-13T06:15:30.821Z,102837.25
2023-02-13T06:17:58.873Z,102837.56
2023-02-13T06:20:26.823Z,102829.31
2023-02-13T06:22:55.320Z,102833.00
2023-02-13T06:25:24.588Z,102827.22
2023-02-13T06:27:52.602Z,102816.28
2023-02-13T06:30:20.722Z,102826.69
2023-02-13T06:32:49.421Z,102825.19
2023-02-13T06:35:17.779Z,102818.53
2023-02-13T06:37:47.291Z,102826.41
2023-02-13T06:40:16.391Z,102825.72
2023-02-13T06:42:46.670Z,102819.88
2023-02-13T06:45:15.350Z,102825.19
2023-02-13T06:47:44.116Z,102821.94
2023-02-13T06:50:13.529Z,102819.47
2023-02-13T06:52:46.370Z,102822.19
2023-02-13T06:55:14.296Z,102819.69
2023-02-13T06:57:42.932Z,102824.97
2023-02-13T07:00:14.313Z,102816.50
2023-02-13T07:02:42.660Z,102808.91
2023-02-13T07:05:11.614Z,102803.84
2023-02-13T07:07:41.553Z,102806.38
2023-02-13T07:10:13.512Z,102791.84
2023-02-13T07:12:41.815Z,102795.44
2023-02-13T07:15:10.452Z,102796.34
2023-02-13T07:17:39.760Z,102794.72
2023-02-13T07:20:09.487Z,102793.97
2023-02-13T07:22:37.461Z,102799.19
2023-02-13T07:25:05.499Z,102792.34
2023-02-13T07:27:33.423Z,102794.94
2023-02-13T07:30:01.332Z,102785.59
2023-02-13T07:32:29.225Z,102787.38
2023-02-13T07:35:02.709Z,102786.53
2023-02-13T07:37:31.595Z,102783.16
2023-02-13T07:39:59.539Z,102789.16
2023-02-13T07:42:27.455Z,102784.00
2023-02-13T07:44:55.354Z,102780.59
2023-02-13T07:47:23.229Z,102775.44
2023-02-13T07:49:51.308Z,102771.97
2023-02-13T07:52:20.560Z,102780.53
2023-02-13T07:54:48.511Z,102782.22
2023-02-13T07:57:16.935Z,102787.34
2023-02-13T07:59:44.928Z,102783.91
2023-02-13T08:02:14.581Z,102776.16
2023-02-13T08:04:46.310Z,102779.56
2023-02-13T08:07:14.475Z,102776.97
2023-02-13T08:10:03.454Z,102775.19
2023-02-13T08:12:32.649Z,102773.34
2023-02-13T08:15:00.591Z,102763.81
2023-02-13T08:17:28.497Z,102762.81
2023-02-13T08:19:56.426Z,102766.22
2023-02-13T08:22:24.380Z,102768.78
2023-02-13T08:24:53.678Z,102751.59
2023-02-13T08:27:21.893Z,102764.34
2023-02-13T08:29:50.839Z,102762.53
2023-02-13T08:32:18.888Z,102769.44
2023-02-13T08:34:46.831Z,102766.72
2023-02-13T08:37:14.788Z,102766.53
2023-02-13T08:39:42.682Z,102764.72
2023-02-13T08:42:15.209Z,102765.44
2023-02-13T08:44:44.273Z,102754.97
2023-02-13T08:47:12.431Z,102760.84
2023-02-13T08:49:40.389Z,102752.06
2023-02-13T08:52:08.307Z,102754.50
2023-02-13T08:54:36.712Z,102746.59
2023-02-13T08:57:04.949Z,102744.81
2023-02-13T08:59:34.320Z,102746.44
2023-02-13T09:02:02.382Z,102743.69
2023-02-13T09:04:30.432Z,102751.38
2023-02-13T09:06:58.339Z,102711.66
2023-02-13T09:09:26.270Z,102744.78
2023-02-13T09:11:57.813Z,102743.09
2023-02-13T09:14:25.951Z,102742.66
2023-02-13T09:16:55.305Z,102731.06
2023-02-13T09:19:23.397Z,102724.13
2023-02-13T09:21:51.294Z,102728.22
2023-02-13T09:24:19.196Z,102723.81
2023-02-13T09:26:47.109Z,102707.97
2023-02-13T09:29:15.200Z,102713.06
2023-02-13T09:31:43.239Z,102711.63
2023-02-13T09:34:12.689Z,102706.16
2023-02-13T09:36:40.642Z,102703.25
2023-02-13T09:39:08.546Z,102698.72
2023-02-13T09:41:40.937Z,102697.00
2023-02-13T09:44:34.065Z,102699.56
2023-02-13T09:47:06.759Z,102685.16
2023-02-13T09:49:41.217Z,102680.81
2023-02-13T09:52:11.271Z,102673.69
2023-02-13T09:54:39.583Z,102672.69
2023-02-13T09:57:17.978Z,102668.53
2023-02-13T09:59:57.224Z,102658.25
2023-02-13T10:02:39.600Z,102652.19
2023-02-13T10:05:21.833Z,102598.94
2023-02-13T10:07:59.924Z,102640.56
2023-02-13T10:10:40.687Z,102634.31
2023-02-13T10:13:24.693Z,102625.44
2023-02-13T10:15:59.198Z,102629.09
2023-02-13T10:18:36.242Z,102616.78
2023-02-13T10:21:09.868Z,102617.25
2023-02-13T10:23:43.839Z,102609.03
2023-02-13T10:26:19.321Z,102611.66
2023-02-13T10:29:13.172Z,102608.75
2023-02-13T10:31:44.901Z,102603.44
2023-02-13T10:34:16.684Z,102597.13
2023-02-13T10:36:47.985Z,102595.19
2023-02-13T10:39:25.111Z,102588.19
2023-02-13T10:41:57.920Z,102595.44
2023-02-13T10:44:44.336Z,102586.50
2023-02-13T10:47:25.995Z,102590.94
2023-02-13T10:50:08.295Z,102583.81
2023-02-13T10:52:50.742Z,102580.25
2023-02-13T10:55:33.647Z,102586.19
2023-02-13T10:58:10.589Z,102573.25
2023-02-13T11:00:43.568Z,102580.81
2023-02-13T11:03:19.551Z,102575.28
2023-02-13T11:05:47.637Z,102560.56
2023-02-13T11:08:21.336Z,102559.56
2023-02-13T11:10:49.425Z,102559.41
2023-02-13T11:13:20.913Z,102531.69
2023-02-13T11:16:01.743Z,102546.53
2023-02-13T11:18:34.203Z,102555.47
2023-02-13T11:21:07.913Z,102546.97
2023-02-13T11:23:41.463Z,102554.22
2023-02-13T11:26:12.421Z,102543.94
2023-02-13T11:28:48.414Z,102541.78
2023-02-13T11:31:24.497Z,102540.31
2023-02-13T11:33:52.837Z,102536.78
2023-02-13T11:36:27.083Z,102528.00
2023-02-13T11:39:05.489Z,102513.44
2023-02-13T11:41:40.718Z,102516.03
2023-02-13T11:44:21.939Z,102504.75
2023-02-13T11:46:52.817Z,102508.44
2023-02-13T11:49:23.429Z,102500.63
2023-02-13T11:51:54.108Z,102498.13
2023-02-13T11:54:36.484Z,102497.47
2023-02-13T11:57:18.367Z,102488.88
2023-02-13T11:59:47.609Z,102493.09
2023-02-13T12:02:19.727Z,102494.47
2023-02-13T12:04:49.869Z,102497.59
2023-02-13T12:07:22.988Z,102478.81
2023-02-13T12:09:58.738Z,102486.53
2023-02-13T12:12:34.260Z,102483.06
2023-02-13T12:15:04.721Z,102477.03
2023-02-13T12:17:33.621Z,102486.91
2023-02-13T12:20:02.362Z,102486.22
2023-02-13T12:22:40.021Z,102481.56
2023-02-13T12:25:51.344Z,102468.69
2023-02-13T12:28:25.612Z,102483.28
2023-02-13T12:31:09.243Z,102485.53
2023-02-13T12:33:54.153Z,102477.34
2023-02-13T12:36:31.923Z,102474.66
2023-02-13T12:39:15.802Z,102468.22
2023-02-13T12:41:55.256Z,102476.13
2023-02-13T12:44:38.902Z,102464.13
2023-02-13T12:47:17.899Z,102472.53
2023-02-13T12:50:18.120Z,102471.25
2023-02-13T12:52:59.798Z,102480.13
2023-02-13T12:55:44.587Z,102471.38
2023-02-13T12:58:36.972Z,102473.97
2023-02-13T13:01:15.977Z,102467.03
2023-02-13T13:03:50.940Z,102467.16
2023-02-13T13:06:32.580Z,102479.03
2023-02-13T13:09:27.021Z,102467.75
2023-02-13T13:12:21.984Z,102466.03
2023-02-13T13:14:57.852Z,102461.84
2023-02-13T13:17:43.935Z,102461.16
2023-02-13T13:20:44.100Z,102478.16
2023-02-13T13:23:17.477Z,102464.22
2023-02-13T13:25:54.313Z,102459.22
2023-02-13T13:28:25.037Z,102452.69
2023-02-13T13:30:55.559Z,102433.66
2023-02-13T13:33:25.366Z,102452.22
2023-02-13T13:36:02.975Z,102444.72
2023-02-13T13:38:44.070Z,102433.69
2023-02-13T13:41:20.024Z,102436.34
2023-02-13T13:44:08.856Z,102432.41
2023-02-13T13:46:50.335Z,102437.84
2023-02-13T13:49:37.171Z,102428.09
2023-02-13T13:52:14.109Z,102424.53
2023-02-13T13:54:42.343Z,102423.00
2023-02-13T13:57:13.695Z,102414.38
2023-02-13T14:00:21.220Z,102414.63
2023-02-13T14:02:52.127Z,102406.78
2023-02-13T14:05:29.580Z,102419.06
2023-02-13T14:07:59.974Z,102402.66
2023-02-13T14:11:07.260Z,102408.75
2023-02-13T14:13:37.819Z,102409.16
2023-02-13T14:16:08.008Z,102401.34
2023-02-13T14:18:38.764Z,102407.53
2023-02-13T14:21:07.690Z,102409.28
2023-02-13T14:23:53.311Z,102410.09
2023-02-13T14:26:32.690Z,102411.94
2023-02-13T14:29:17.808Z,102409.28
2023-02-13T14:32:17.182Z,102401.00
2023-02-13T14:34:54.210Z,102412.34
2023-02-13T14:37:30.298Z,102412.22
2023-02-13T14:40:30.117Z,102417.59
2023-02-13T14:43:01.515Z,102414.47
2023-02-13T14:45:33.474Z,102416.84
2023-02-13T14:48:09.052Z,102420.28
2023-02-13T14:50:47.180Z,102416.84
2023-02-13T14:53:23.703Z,102412.72
2023-02-13T14:55:57.806Z,102405.72
2023-02-13T14:58:29.093Z,102412.91
2023-02-13T15:01:01.448Z,102411.16
2023-02-13T15:03:32.666Z,102403.69
2023-02-13T15:06:05.974Z,102403.75
2023-02-13T15:08:38.118Z,102398.59
2023-02-13T15:11:26.267Z,102395.25
2023-02-13T15:13:54.209Z,102398.75
2023-02-13T15:16:22.225Z,102389.34
2023-02-13T15:18:52.602Z,102392.00
2023-02-13T15:21:24.402Z,102382.66
2023-02-13T15:23:55.608Z,102389.78
2023-02-13T15:26:26.444Z,102388.16
2023-02-13T15:29:02.234Z,102380.47
2023-02-13T15:31:33.424Z,102386.31
2023-02-13T15:34:01.638Z,102379.91
2023-02-13T15:36:38.049Z,102391.00
2023-02-13T15:39:09.780Z,102389.31
2023-02-13T15:41:41.508Z,102386.94
2023-02-13T15:44:15.750Z,102386.34
2023-02-13T15:46:45.253Z,102383.69
2023-02-13T15:49:17.756Z,102384.56
2023-02-13T15:51:47.953Z,102388.59
2023-02-13T15:54:27.964Z,102396.47
2023-02-13T15:56:58.935Z,102395.63
2023-02-13T15:59:32.802Z,102393.09
2023-02-13T16:02:01.935Z,102404.34
2023-02-13T16:04:30.599Z,102401.81
2023-02-13T16:07:00.349Z,102404.38
2023-02-13T16:09:32.791Z,102410.28
2023-02-13T16:12:08.954Z,102411.97
2023-02-13T16:14:45.981Z,102407.66
2023-02-13T16:17:19.662Z,102411.91
2023-02-13T16:19:55.795Z,102414.47
2023-02-13T16:22:34.325Z,102411.94
2023-02-13T16:25:19.512Z,102420.56
2023-02-13T16:27:50.004Z,102413.75
2023-02-13T16:30:26.563Z,102412.06
2023-02-13T16:33:11.351Z,102411.19
2023-02-13T16:35:40.857Z,102414.59
2023-02-13T16:38:28.268Z,102409.47
2023-02-13T16:40:57.961Z,102405.97
2023-02-13T16:43:44.917Z,102410.91
2023-02-13T16:46:26.446Z,102414.50
2023-02-13T16:49:07.829Z,102410.13
2023-02-13T16:51:39.762Z,102411.84
2023-02-13T16:54:22.027Z,102407.59
2023-02-13T16:56:52.935Z,102405.13
2023-02-13T16:59:34.769Z,102402.59
2023-02-13T17:02:21.824Z,102397.41
2023-02-13T17:04:52.311Z,102394.88
2023-02-13T17:07:23.525Z,102397.44
2023-02-13T17:10:01.558Z,102396.50
2023-02-13T17:12:31.671Z,102392.00
2023-02-13T17:15:00.778Z,102389.19
2023-02-13T17:17:30.545Z,102390.19
2023-02-13T17:19:59.124Z,102384.16
2023-02-13T17:22:35.732Z,102385.81
2023-02-13T17:25:07.629Z,102376.44
2023-02-13T17:27:35.762Z,102378.66
2023-02-13T17:30:03.810Z,102379.38
2023-02-13T17:32:32.121Z,102373.56
2023-02-13T17:35:00.106Z,102370.28
2023-02-13T17:37:30.126Z,102376.47
2023-02-13T17:39:58.095Z,102359.44
2023-02-13T17:42:29.477Z,102358.75
2023-02-13T17:44:59.176Z,102367.34
2023-02-13T17:47:27.731Z,102363.09
2023-02-13T17:50:08.319Z,102362.97
2023-02-13T17:52:37.982Z,102359.41
2023-02-13T17:55:06.794Z,102352.66
2023-02-13T17:57:36.124Z,102361.34
2023-02-13T18:00:05.124Z,102366.34
2023-02-13T18:02:33.696Z,102350.31
2023-02-13T18:05:01.616Z,102352.09
2023-02-13T18:07:29.598Z,102356.41
2023-02-13T18:09:57.486Z,102358.94
2023-02-13T18:12:26.038Z,102355.53
2023-02-13T18:14:55.451Z,102362.31
2023-02-13T18:17:23.515Z,102364.84
2023-02-13T18:19:51.615Z,102360.63
2023-02-13T18:22:19.558Z,102354.66
2023-02-13T18:24:47.643Z,102356.38
2023-02-13T18:27:15.539Z,102355.47
2023-02-13T18:29:43.503Z,102350.41
2023-02-13T18:32:13.297Z,102347.84
2023-02-13T18:34:41.321Z,102350.44
2023-02-13T18:37:09.633Z,102348.72
2023-02-13T18:39:37.564Z,102322.09
2023-02-13T18:42:05.732Z,102349.53
2023-02-13T18:44:33.789Z,102351.06
2023-02-13T18:47:02.192Z,102340.75
2023-02-13T18:49:31.464Z,102343.03
2023-02-13T18:52:00.800Z,102343.16
2023-02-13T18:54:28.805Z,102349.16
2023-02-13T18:56:56.856Z,102342.31
2023-02-13T18:59:24.859Z,102338.16
2023-02-13T19:01:52.820Z,102335.66
2023-02-13T19:04:20.740Z,102337.44
2023-02-13T19:06:50.356Z,102337.50
2023-02-13T19:09:18.363Z,102331.53
2023-02-13T19:11:48.525Z,102329.88
2023-02-13T19:14:17.058Z,102328.88
2023-02-13T19:16:45.068Z,102339.91
2023-02-13T19:19:13.088Z,102328.78
2023-02-13T19:21:41.412Z,102335.34
2023-02-13T19:24:15.422Z,102331.03
2023-02-13T19:26:44.755Z,102331.72
2023-02-13T19:29:12.689Z,102338.06
2023-02-13T19:31:40.724Z,102329.63
2023-02-13T19:34:08.726Z,102325.41
2023-02-13T19:36:36.658Z,102313.44
2023-02-13T19:39:09.117Z,102298.03
2023-02-13T19:41:40.687Z,102294.66
2023-02-13T19:44:08.857Z,102305.69
2023-02-13T19:46:37.996Z,102292.88
2023-02-13T19:49:06.614Z,102311.59
2023-02-13T19:51:35.846Z,102306.53
2023-02-13T19:54:06.299Z,102300.53
2023-02-13T19:56:35.563Z,102297.19
2023-02-13T19:59:05.320Z,102296.31
2023-02-13T20:01:33.675Z,102296.34
2023-02-13T20:04:01.639Z,102300.63
2023-02-13T20:06:35.024Z,102289.53
2023-02-13T20:09:06.669Z,102290.47
2023-02-13T20:11:34.688Z,102290.47
2023-02-13T20:14:05.321Z,102285.31
2023-02-13T20:16:36.698Z,102281.91
2023-02-13T20:19:06.992Z,102282.78
2023-02-13T20:21:35.398Z,102274.03
2023-02-13T20:24:04.035Z,102281.50
2023-02-13T20:26:32.326Z,102271.97
2023-02-13T20:29:00.574Z,102271.00
2023-02-13T20:31:31.172Z,102277.03
2023-02-13T20:33:59.540Z,102269.19
2023-02-13T20:36:28.781Z,102267.66
2023-02-13T20:38:59.643Z,102262.56
2023-02-13T20:41:29.261Z,102257.41
2023-02-13T20:43:59.608Z,102242.72
2023-02-13T20:46:30.089Z,102244.34
2023-02-13T20:48:58.009Z,102234.81
2023-02-13T20:51:26.452Z,102237.16
2023-02-13T20:53:55.518Z,102217.31
2023-02-13T20:56:25.170Z,102219.94
2023-02-13T20:58:56.065Z,102224.19
2023-02-13T21:01:26.249Z,102208.97
2023-02-13T21:03:56.886Z,102202.75
2023-02-13T21:06:26.344Z,102201.88
2023-02-13T21:08:54.556Z,102199.31
2023-02-13T21:11:23.321Z,102190.09
2023-02-13T21:13:51.781Z,102191.00
2023-02-13T21:16:21.397Z,102186.00
2023-02-13T21:18:49.857Z,102193.78
2023-02-13T21:21:19.934Z,102184.50
2023-02-13T21:23:47.978Z,102185.34
2023-02-13T21:26:17.684Z,102181.94
2023-02-13T21:28:47.207Z,102186.38
2023-02-13T21:31:17.443Z,102179.53
2023-02-13T21:33:45.678Z,102182.72
2023-02-13T21:36:14.585Z,102180.31
2023-02-13T21:38:43.957Z,102190.72
2023-02-13T21:41:14.542Z,102191.66
2023-02-13T21:43:46.743Z,102188.38
2023-02-13T21:46:17.245Z,102194.34
2023-02-13T21:48:45.524Z,102191.69
2023-02-13T21:51:15.374Z,102194.19
2023-02-13T21:53:45.662Z,102200.00
2023-02-13T21:56:16.179Z,102195.75
2023-02-13T21:58:45.639Z,102176.88
2023-02-13T22:01:25.427Z,102198.97
2023-02-13T22:03:54.834Z,102206.56
2023-02-13T22:06:23.186Z,102212.72
2023-02-13T22:08:57.461Z,102216.22
2023-02-13T22:11:26.106Z,102214.75
2023-02-13T22:13:56.129Z,102221.63
2023-02-13T22:16:24.124Z,102226.03
2023-02-13T22:18:52.199Z,102210.69
2023-02-13T22:21:21.854Z,102214.09
2023-02-13T22:23:51.110Z,102207.28
2023-02-13T22:26:22.533Z,102208.13
2023-02-13T22:28:51.367Z,102215.03
2023-02-13T22:31:20.588Z,102210.81
2023-02-13T22:33:55.315Z,102207.44
2023-02-13T22:36:30.979Z,102215.16
2023-02-13T22:38:58.905Z,102214.22
2023-02-13T22:41:29.039Z,102209.09
2023-02-13T22:43:57.215Z,102202.31
2023-02-13T22:46:27.330Z,102191.16
2023-02-13T22:48:56.117Z,102199.59
2023-02-13T22:51:25.964Z,102202.16
2023-02-13T22:53:54.745Z,102207.34
2023-02-13T22:56:23.052Z,102206.53
2023-02-13T22:58:52.590Z,102200.50
2023-02-13T23:01:22.396Z,102188.50
2023-02-13T23:03:50.990Z,102197.91
2023-02-13T23:06:19.834Z,102209.91
2023-02-13T23:08:49.116Z,102211.59
2023-02-13T23:11:36.028Z,102183.34
2023-02-13T23:14:05.357Z,102206.47
2023-02-13T23:16:53.782Z,102217.94
2023-02-13T23:19:20.922Z,102220.53
2023-02-13T23:21:48.928Z,102214.59
2023-02-13T23:24:16.881Z,102216.09
2023-02-13T23:26:44.871Z,102216.84
2023-02-13T23:29:14.161Z,102212.63
2023-02-13T23:31:42.213Z,102206.25
2023-02-13T23:34:10.166Z,102196.13
2023-02-13T23:36:38.176Z,102197.91
2023-02-13T23:39:06.123Z,102204.47
2023-02-13T23:41:34.063Z,102181.28
2023-02-13T23:44:01.959Z,102199.34
2023-02-13T23:46:31.364Z,102192.78
2023-02-13T23:48:59.272Z,102188.53
2023-02-13T23:51:27.283Z,102191.91
2023-02-13T23:53:57.376Z,102193.00
2023-02-13T23:56:26.000Z,102194.06
2023-02-13T23:58:54.059Z,102190.38
